createdAt,value
2023-04-08T00:02:17.266Z,101064.53
2023-04-08T00:04:44.576Z,101061.75
2023-04-08T00:07:11.845Z,101059.19
2023-04-08T00:09:39.149Z,101065.44
2023-04-08T00:12:06.723Z,101063.69
2023-04-08T00:14:34.075Z,101069.91
2023-04-08T00:17:01.413Z,101070.88
2023-04-08T00:19:29.242Z,101073.47
2023-04-08T00:21:56.561Z,101059.19
2023-04-08T00:24:23.883Z,101068.22
2023-04-08T00:26:51.918Z,101072.59
2023-04-08T00:29:19.226Z,101068.22
2023-04-08T00:31:46.684Z,101077.09
2023-04-08T00:34:14.203Z,101081.59
2023-04-08T00:36:41.363Z,101080.63
2023-04-08T00:39:08.870Z,101081.59
2023-04-08T00:41:36.224Z,101074.41
2023-04-08T00:44:03.593Z,101073.56
2023-04-08T00:46:34.001Z,101078.94
2023-04-08T00:49:02.320Z,101070.88
2023-04-08T00:51:31.174Z,101076.25
2023-04-08T00:54:00.503Z,101073.56
2023-04-08T00:56:28.126Z,101067.34
2023-04-08T00:58:56.190Z,101068.22
2023-04-08T01:01:52.943Z,101075.41
2023-04-08T01:04:52.186Z,101064.69
2023-04-08T01:07:37.819Z,101059.31
2023-04-08T01:10:15.777Z,101064.69
2023-04-08T01:12:54.534Z,101061.00
2023-04-08T01:15:22.686Z,101055.78
2023-04-08T01:17:54.652Z,101047.75
2023-04-08T01:20:24.178Z,101053.09
2023-04-08T01:23:00.353Z,101047.75
2023-04-08T01:25:34.676Z,101048.59
2023-04-08T01:28:07.333Z,101059.31
2023-04-08T01:30:37.996Z,101042.38
2023-04-08T01:33:06.216Z,101038.84
2023-04-08T01:35:34.070Z,101045.91
2023-04-08T01:38:03.573Z,101038.00
2023-04-08T01:40:32.720Z,101047.75
2023-04-08T01:43:01.957Z,101041.53
2023-04-08T01:45:30.785Z,101045.16
2023-04-08T01:48:00.237Z,101049.69
2023-04-08T01:50:29.109Z,101051.41
2023-04-08T01:52:59.124Z,101056.63
2023-04-08T01:55:28.060Z,101052.25
2023-04-08T01:57:57.554Z,101052.25
2023-04-08T02:00:29.457Z,101050.53
2023-04-08T02:02:58.031Z,101049.56
2023-04-08T02:05:25.484Z,101052.25
2023-04-08T02:07:52.891Z,101054.94
2023-04-08T02:10:21.133Z,101056.78
2023-04-08T02:12:48.565Z,101052.25
2023-04-08T02:15:16.788Z,101053.09
2023-04-08T02:17:55.540Z,101058.47
2023-04-08T02:20:33.633Z,101055.78
2023-04-08T02:23:19.595Z,101058.47
2023-04-08T02:25:48.786Z,101065.66
2023-04-08T02:28:18.884Z,101054.09
2023-04-08T02:30:49.941Z,101062.97
2023-04-08T02:33:20.983Z,101062.13
2023-04-08T02:35:51.034Z,101068.34
2023-04-08T02:38:18.421Z,101070.16
2023-04-08T02:40:45.662Z,101072.84
2023-04-08T02:43:12.952Z,101070.16
2023-04-08T02:45:44.567Z,101078.31
2023-04-08T02:48:12.248Z,101081.84
2023-04-08T02:50:40.715Z,101088.94
2023-04-08T02:53:09.493Z,101083.56
2023-04-08T02:55:38.091Z,101081.75
2023-04-08T02:58:05.511Z,101083.56
2023-04-08T03:00:32.769Z,101080.88
2023-04-08T03:03:00.419Z,101071.97
2023-04-08T03:05:27.932Z,101087.09
2023-04-08T03:07:55.492Z,101077.22
2023-04-08T03:10:22.788Z,101071.97
2023-04-08T03:12:50.023Z,101073.81
2023-04-08T03:15:17.270Z,101077.31
2023-04-08T03:17:44.653Z,101071.97
2023-04-08T03:20:12.091Z,101074.66
2023-04-08T03:22:39.316Z,101079.16
2023-04-08T03:25:07.007Z,101073.81
2023-04-08T03:27:34.359Z,101073.81
2023-04-08T03:30:02.438Z,101077.47
2023-04-08T03:32:29.854Z,101072.84
2023-04-08T03:34:57.366Z,101078.22
2023-04-08T03:37:24.831Z,101079.91
2023-04-08T03:39:52.109Z,101072.84
2023-04-08T03:42:19.359Z,101077.31
2023-04-08T03:44:46.644Z,101083.56
2023-04-08T03:47:13.873Z,101088.03
2023-04-08T03:49:41.264Z,101084.53
2023-04-08T03:52:08.657Z,101097.06
2023-04-08T03:54:36.049Z,101095.25
2023-04-08T03:57:03.249Z,101096.09
2023-04-08T03:59:30.649Z,101108.78
2023-04-08T04:01:57.917Z,101110.47
2023-04-08T04:04:25.793Z,101109.63
2023-04-08T04:06:53.139Z,101114.97
2023-04-08T04:09:20.476Z,101123.00
2023-04-08T04:11:47.815Z,101124.72
2023-04-08T04:14:15.072Z,101121.31
2023-04-08T04:16:42.365Z,101122.16
2023-04-08T04:19:09.722Z,101120.34
2023-04-08T04:21:37.191Z,101116.81
2023-04-08T04:24:04.743Z,101115.97
2023-04-08T04:26:32.043Z,101121.31
2023-04-08T04:28:59.288Z,101124.00
2023-04-08T04:31:26.756Z,101115.97
2023-04-08T04:33:54.651Z,101120.47
2023-04-08T04:36:21.968Z,101126.69
2023-04-08T04:38:50.934Z,101124.00
2023-04-08T04:41:18.467Z,101124.97
2023-04-08T04:43:45.840Z,101121.31
2023-04-08T04:46:13.355Z,101123.16
2023-04-08T04:48:40.792Z,101122.28
2023-04-08T04:51:08.116Z,101125.81
2023-04-08T04:53:35.492Z,101125.81
2023-04-08T04:56:02.890Z,101122.41
2023-04-08T04:58:30.787Z,101119.63
2023-04-08T05:00:58.376Z,101125.91
2023-04-08T05:03:26.148Z,101127.75
2023-04-08T05:05:54.462Z,101130.34
2023-04-08T05:08:21.933Z,101137.50
2023-04-08T05:10:50.921Z,101138.38
2023-04-08T05:13:18.832Z,101139.31
2023-04-08T05:15:46.353Z,101139.31
2023-04-08T05:18:14.040Z,101139.31
2023-04-08T05:20:41.437Z,101136.63
2023-04-08T05:23:08.941Z,101137.63
2023-04-08T05:25:36.474Z,101139.31
2023-04-08T05:28:04.337Z,101138.47
2023-04-08T05:30:31.626Z,101150.03
2023-04-08T05:33:00.592Z,101151.78
2023-04-08T05:35:29.191Z,101150.03
2023-04-08T05:37:56.477Z,101150.03
2023-04-08T05:40:23.983Z,101154.56
2023-04-08T05:42:51.239Z,101155.41
2023-04-08T05:45:18.581Z,101150.03
2023-04-08T05:47:45.925Z,101148.34
2023-04-08T05:50:13.341Z,101154.56
2023-04-08T05:52:47.140Z,101153.69
2023-04-08T05:55:14.812Z,101159.91
2023-04-08T05:57:42.273Z,101157.22
2023-04-08T06:00:10.772Z,101159.06
2023-04-08T06:02:38.912Z,101161.75
2023-04-08T06:05:06.828Z,101164.41
2023-04-08T06:07:34.589Z,101160.88
2023-04-08T06:10:02.815Z,101167.09
2023-04-08T06:12:30.132Z,101171.59
2023-04-08T06:14:57.437Z,101169.78
2023-04-08T06:17:24.864Z,101170.63
2023-04-08T06:19:52.156Z,101174.16
2023-04-08T06:22:19.411Z,101180.50
2023-04-08T06:24:48.162Z,101181.47
2023-04-08T06:27:16.059Z,101182.31
2023-04-08T06:29:43.476Z,101179.66
2023-04-08T06:32:11.348Z,101192.91
2023-04-08T06:34:38.954Z,101186.72
2023-04-08T06:37:06.525Z,101184.03
2023-04-08T06:39:34.165Z,101184.03
2023-04-08T06:42:01.809Z,101192.91
2023-04-08T06:45:04.938Z,101187.56
2023-04-08T06:47:32.223Z,101191.09
2023-04-08T06:49:59.660Z,101186.72
2023-04-08T06:52:27.350Z,101192.91
2023-04-08T06:54:54.671Z,101192.06
2023-04-08T06:57:22.081Z,101193.91
2023-04-08T06:59:49.327Z,101193.91
2023-04-08T07:02:16.683Z,101195.59
2023-04-08T07:04:45.510Z,101192.91
2023-04-08T07:07:14.410Z,101192.91
2023-04-08T07:09:43.397Z,101192.91
2023-04-08T07:12:10.590Z,101195.59
2023-04-08T07:14:37.833Z,101194.75
2023-04-08T07:17:05.640Z,101196.44
2023-04-08T07:19:33.085Z,101194.66
2023-04-08T07:22:00.693Z,101200.88
2023-04-08T07:24:28.060Z,101205.38
2023-04-08T07:26:56.824Z,101198.28
2023-04-08T07:29:24.055Z,101203.63
2023-04-08T07:31:51.874Z,101201.81
2023-04-08T07:34:19.067Z,101205.38
2023-04-08T07:36:46.449Z,101209.75
2023-04-08T07:39:13.782Z,101208.06
2023-04-08T07:41:41.054Z,101205.38
2023-04-08T07:44:08.355Z,101212.44
2023-04-08T07:46:39.104Z,101214.25
2023-04-08T07:49:06.824Z,101213.28
2023-04-08T07:51:34.777Z,101210.72
2023-04-08T07:54:02.042Z,101220.47
2023-04-08T07:56:29.396Z,101208.78
2023-04-08T07:58:56.717Z,101223.88
2023-04-08T08:01:24.507Z,101217.56
2023-04-08T08:03:53.260Z,101216.59
2023-04-08T08:06:22.149Z,101208.56
2023-04-08T08:08:49.468Z,101216.38
2023-04-08T08:11:16.745Z,101210.88
2023-04-08T08:13:44.162Z,101215.16
2023-04-08T08:16:12.071Z,101215.16
2023-04-08T08:18:40.599Z,101223.84
2023-04-08T08:21:09.036Z,101210.31
2023-04-08T08:23:37.467Z,101221.75
2023-04-08T08:26:07.488Z,101217.28
2023-04-08T08:28:34.802Z,101215.44
2023-04-08T08:31:06.232Z,101218.22
2023-04-08T08:33:34.076Z,101216.38
2023-04-08T08:36:01.716Z,101226.25
2023-04-08T08:38:28.977Z,101227.25
2023-04-08T08:41:00.479Z,101222.00
2023-04-08T08:43:29.221Z,101221.16
2023-04-08T08:45:56.497Z,101218.56
2023-04-08T08:48:23.935Z,101223.06
2023-04-08T08:50:51.515Z,101225.88
2023-04-08T08:53:20.733Z,101225.03
2023-04-08T08:58:19.052Z,101225.75
2023-04-08T09:00:46.389Z,101224.78
2023-04-08T09:03:19.079Z,101224.56
2023-04-08T09:05:51.905Z,101221.75
2023-04-08T09:08:27.161Z,101224.44
2023-04-08T09:10:55.743Z,101223.47
2023-04-08T09:13:24.821Z,101224.44
2023-04-08T09:16:06.430Z,101228.00
2023-04-08T09:18:34.066Z,101226.03
2023-04-08T09:21:02.649Z,101225.81
2023-04-08T09:23:52.717Z,101226.06
2023-04-08T09:26:24.869Z,101228.66
2023-04-08T09:29:18.238Z,101222.97
2023-04-08T09:31:56.810Z,101220.91
2023-04-08T09:34:26.680Z,101216.53
2023-04-08T09:36:56.485Z,101217.38
2023-04-08T09:39:24.396Z,101218.47
2023-04-08T09:41:53.160Z,101216.91
2023-04-08T09:44:22.275Z,101223.31
2023-04-08T09:46:49.566Z,101217.09
2023-04-08T09:49:50.071Z,101217.31
2023-04-08T09:52:21.409Z,101222.81
2023-04-08T09:54:53.505Z,101214.63
2023-04-08T09:57:43.300Z,101218.16
2023-04-08T10:00:15.478Z,101210.13
2023-04-08T10:02:57.346Z,101208.28
2023-04-08T10:05:25.574Z,101211.09
2023-04-08T10:07:52.900Z,101210.25
2023-04-08T10:10:21.167Z,101207.66
2023-04-08T10:12:49.848Z,101202.22
2023-04-08T10:15:29.378Z,101211.09
2023-04-08T10:18:20.457Z,101201.34
2023-04-08T10:20:49.403Z,101206.72
2023-04-08T10:23:18.250Z,101205.88
2023-04-08T10:25:49.330Z,101200.38
2023-04-08T10:28:19.237Z,101199.53
2023-04-08T10:30:48.295Z,101200.38
2023-04-08T10:33:40.069Z,101204.75
2023-04-08T10:36:10.112Z,101200.38
2023-04-08T10:38:42.727Z,101192.19
2023-04-08T10:41:14.407Z,101187.69
2023-04-08T10:43:41.991Z,101192.09
2023-04-08T10:46:11.708Z,101186.84
2023-04-08T10:48:39.377Z,101182.31
2023-04-08T10:51:06.764Z,101189.41
2023-04-08T10:53:36.857Z,101186.63
2023-04-08T10:56:08.120Z,101185.75
2023-04-08T10:58:39.198Z,101175.78
2023-04-08T11:01:08.039Z,101190.06
2023-04-08T11:03:37.212Z,101189.19
2023-04-08T11:06:06.177Z,101174.94
2023-04-08T11:08:34.590Z,101173.97
2023-04-08T11:11:02.165Z,101177.63
2023-04-08T11:13:30.756Z,101171.41
2023-04-08T11:16:00.236Z,101172.34
2023-04-08T11:18:28.695Z,101169.66
2023-04-08T11:20:57.624Z,101164.44
2023-04-08T11:23:26.521Z,101162.59
2023-04-08T11:25:54.268Z,101168.06
2023-04-08T11:28:22.734Z,101169.91
2023-04-08T11:30:50.594Z,101159.16
2023-04-08T11:33:18.003Z,101155.63
2023-04-08T11:35:45.591Z,101152.09
2023-04-08T11:38:13.228Z,101145.03
2023-04-08T11:40:40.826Z,101145.03
2023-04-08T11:43:12.228Z,101144.19
2023-04-08T11:45:40.684Z,101148.56
2023-04-08T11:48:11.785Z,101145.03
2023-04-08T11:50:39.131Z,101142.38
2023-04-08T11:53:25.122Z,101140.53
2023-04-08T11:55:52.600Z,101139.69
2023-04-08T11:58:19.823Z,101147.72
2023-04-08T12:00:47.660Z,101141.50
2023-04-08T12:03:15.269Z,101132.50
2023-04-08T12:05:42.895Z,101138.69
2023-04-08T12:08:10.260Z,101137.84
2023-04-08T12:10:37.959Z,101129.81
2023-04-08T12:13:05.235Z,101134.31
2023-04-08T12:15:32.922Z,101139.69
2023-04-08T12:18:00.578Z,101130.78
2023-04-08T12:20:27.806Z,101134.31
2023-04-08T12:22:55.061Z,101127.22
2023-04-08T12:25:22.325Z,101128.09
2023-04-08T12:27:49.813Z,101119.19
2023-04-08T12:30:17.120Z,101115.66
2023-04-08T12:32:46.081Z,101115.66
2023-04-08T12:35:13.970Z,101111.13
2023-04-08T12:37:41.444Z,101109.34
2023-04-08T12:40:09.180Z,101103.97
2023-04-08T12:42:36.429Z,101107.50
2023-04-08T12:45:03.965Z,101111.03
2023-04-08T12:47:31.257Z,101104.81
2023-04-08T12:49:58.624Z,101107.50
2023-04-08T12:52:25.919Z,101106.66
2023-04-08T12:54:53.137Z,101107.50
2023-04-08T12:57:20.605Z,101100.41
2023-04-08T12:59:47.873Z,101109.34
2023-04-08T13:02:15.399Z,101112.03
2023-04-08T13:04:42.842Z,101104.81
2023-04-08T13:07:10.207Z,101106.66
2023-04-08T13:09:37.498Z,101103.09
2023-04-08T13:12:05.066Z,101111.13
2023-04-08T13:14:32.911Z,101100.41
2023-04-08T13:17:00.205Z,101104.91
2023-04-08T13:19:27.547Z,101098.72
2023-04-08T13:21:54.814Z,101092.50
2023-04-08T13:24:22.698Z,101098.72
2023-04-08T13:26:49.975Z,101091.50
2023-04-08T13:29:17.208Z,101093.34
2023-04-08T13:31:44.520Z,101093.25
2023-04-08T13:34:11.758Z,101100.41
2023-04-08T13:36:39.154Z,101096.78
2023-04-08T13:39:06.419Z,101107.50
2023-04-08T13:41:35.017Z,101091.41
2023-04-08T13:44:02.264Z,101091.41
2023-04-08T13:46:29.725Z,101093.25
2023-04-08T13:48:57.035Z,101101.16
2023-04-08T13:51:24.501Z,101096.78
2023-04-08T13:53:52.067Z,101105.66
2023-04-08T13:56:19.433Z,101104.69
2023-04-08T13:58:52.542Z,101110.06
2023-04-08T14:01:24.075Z,101110.06
2023-04-08T14:03:51.413Z,101102.13
2023-04-08T14:06:18.676Z,101099.47
2023-04-08T14:08:46.028Z,101105.66
2023-04-08T14:11:13.432Z,101107.50
2023-04-08T14:13:40.888Z,101102.13
2023-04-08T14:16:08.075Z,101102.13
2023-04-08T14:18:35.288Z,101096.78
2023-04-08T14:21:02.788Z,101092.25
2023-04-08T14:23:30.109Z,101092.25
2023-04-08T14:25:57.365Z,101083.38
2023-04-08T14:28:24.618Z,101085.19
2023-04-08T14:30:52.259Z,101078.00
2023-04-08T14:33:19.585Z,101077.03
2023-04-08T14:35:47.811Z,101076.16
2023-04-08T14:38:15.815Z,101075.19
2023-04-08T14:40:43.165Z,101070.81
2023-04-08T14:43:10.398Z,101067.16
2023-04-08T14:45:37.683Z,101068.13
2023-04-08T14:48:05.157Z,101076.16
2023-04-08T14:50:32.480Z,101078.84
2023-04-08T14:52:59.773Z,101079.72
2023-04-08T14:55:28.540Z,101060.19
2023-04-08T14:57:57.066Z,101075.31
2023-04-08T15:00:24.523Z,101077.16
2023-04-08T15:02:51.899Z,101070.81
2023-04-08T15:05:19.198Z,101061.06
2023-04-08T15:07:50.009Z,101072.63
2023-04-08T15:10:17.377Z,101079.72
2023-04-08T15:12:44.725Z,101076.16
2023-04-08T15:15:12.050Z,101068.13
2023-04-08T15:17:39.269Z,101065.44
2023-04-08T15:20:07.754Z,101076.16
2023-04-08T15:22:35.115Z,101068.97
2023-04-08T15:25:05.047Z,101058.25
2023-04-08T15:27:32.407Z,101068.97
2023-04-08T15:29:59.740Z,101066.28
2023-04-08T15:32:27.712Z,101061.91
2023-04-08T15:34:55.066Z,101064.59
2023-04-08T15:37:23.046Z,101069.81
2023-04-08T15:39:50.867Z,101074.34
2023-04-08T15:42:18.236Z,101075.31
2023-04-08T15:44:45.499Z,101073.50
2023-04-08T15:47:13.011Z,101083.38
2023-04-08T15:49:40.449Z,101080.69
2023-04-08T15:52:07.782Z,101083.38
2023-04-08T15:54:35.059Z,101086.06
2023-04-08T15:57:05.638Z,101079.84
2023-04-08T15:59:33.170Z,101085.06
2023-04-08T16:02:00.741Z,101084.31
2023-04-08T16:04:28.224Z,101083.38
2023-04-08T16:06:55.756Z,101078.00
2023-04-08T16:09:26.665Z,101081.53
2023-04-08T16:11:54.093Z,101088.72
2023-04-08T16:14:22.986Z,101080.69
2023-04-08T16:16:51.408Z,101089.59
2023-04-08T16:19:18.702Z,101086.91
2023-04-08T16:21:46.374Z,101083.38
2023-04-08T16:24:14.412Z,101093.13
2023-04-08T16:26:42.139Z,101093.13
2023-04-08T16:29:09.727Z,101095.66
2023-04-08T16:31:37.431Z,101098.34
2023-04-08T16:34:05.103Z,101098.25
2023-04-08T16:36:32.657Z,101100.81
2023-04-08T16:39:00.160Z,101100.81
2023-04-08T16:41:27.477Z,101106.19
2023-04-08T16:43:55.000Z,101106.19
2023-04-08T16:46:23.155Z,101108.88
2023-04-08T16:48:50.547Z,101115.09
2023-04-08T16:51:18.983Z,101108.72
2023-04-08T16:53:46.546Z,101117.66
2023-04-08T16:56:17.127Z,101115.09
2023-04-08T16:58:44.688Z,101123.97
2023-04-08T17:01:14.222Z,101124.81
2023-04-08T17:03:41.926Z,101124.81
2023-04-08T17:06:12.077Z,101131.06
2023-04-08T17:08:43.132Z,101132.88
2023-04-08T17:11:13.192Z,101132.03
2023-04-08T17:13:42.022Z,101134.69
2023-04-08T17:16:14.327Z,101129.34
2023-04-08T17:18:42.386Z,101136.53
2023-04-08T17:21:09.822Z,101140.06
2023-04-08T17:23:37.099Z,101150.69
2023-04-08T17:26:08.824Z,101143.59
2023-04-08T17:28:36.361Z,101138.97
2023-04-08T17:31:03.770Z,101151.53
2023-04-08T17:33:31.243Z,101147.16
2023-04-08T17:35:58.668Z,101156.91
2023-04-08T17:38:26.124Z,101160.44
2023-04-08T17:40:53.514Z,101159.59
2023-04-08T17:43:20.773Z,101167.50
2023-04-08T17:45:50.096Z,101165.66
2023-04-08T17:48:18.710Z,101160.44
2023-04-08T17:50:45.962Z,101166.78
2023-04-08T17:53:13.115Z,101176.66
2023-04-08T17:55:40.382Z,101173.00
2023-04-08T17:58:07.713Z,101192.63
2023-04-08T18:00:35.029Z,101195.44
2023-04-08T18:03:02.516Z,101197.13
2023-04-08T18:05:30.137Z,101202.50
2023-04-08T18:07:58.561Z,101198.00
2023-04-08T18:10:25.900Z,101209.56
2023-04-08T18:13:00.621Z,101206.03
2023-04-08T18:15:38.505Z,101213.09
2023-04-08T18:18:05.911Z,101214.94
2023-04-08T18:20:37.254Z,101221.16
2023-04-08T18:23:04.575Z,101219.31
2023-04-08T18:25:32.393Z,101222.84
2023-04-08T18:27:59.679Z,101229.94
2023-04-08T18:30:27.150Z,101229.94
2023-04-08T18:32:54.493Z,101235.31
2023-04-08T18:35:22.101Z,101238.94
2023-04-08T18:37:49.685Z,101244.31
2023-04-08T18:40:17.762Z,101250.56
2023-04-08T18:42:44.971Z,101250.66
2023-04-08T18:45:12.456Z,101247.00
2023-04-08T18:47:39.746Z,101265.75
2023-04-08T18:50:07.747Z,101267.50
2023-04-08T18:52:35.171Z,101265.66
2023-04-08T18:55:02.717Z,101259.44
2023-04-08T18:57:30.097Z,101271.03
2023-04-08T18:59:57.381Z,101272.88
2023-04-08T19:02:24.699Z,101283.59
2023-04-08T19:04:52.209Z,101290.78
2023-04-08T19:07:19.601Z,101298.84
2023-04-08T19:09:46.918Z,101305.03
2023-04-08T19:12:14.182Z,101298.84
2023-04-08T19:14:42.131Z,101305.03
2023-04-08T19:17:09.800Z,101303.31
2023-04-08T19:19:37.206Z,101311.34
2023-04-08T19:22:05.772Z,101312.25
2023-04-08T19:24:33.836Z,101317.59
2023-04-08T19:27:01.136Z,101314.03
2023-04-08T19:29:32.811Z,101319.41
2023-04-08T19:32:01.667Z,101318.47
2023-04-08T19:34:29.269Z,101314.78
2023-04-08T19:36:56.833Z,101319.19
2023-04-08T19:39:26.378Z,101321.88
2023-04-08T19:41:54.979Z,101324.44
2023-04-08T19:44:24.851Z,101318.34
2023-04-08T19:46:52.206Z,101332.59
2023-04-08T19:49:20.630Z,101318.34
2023-04-08T19:51:47.954Z,101333.56
2023-04-08T19:54:15.214Z,101336.25
2023-04-08T19:56:42.652Z,101337.22
2023-04-08T19:59:11.499Z,101342.59
2023-04-08T20:01:40.096Z,101347.97
2023-04-08T20:04:07.606Z,101347.13
2023-04-08T20:06:35.235Z,101353.31
2023-04-08T20:09:05.711Z,101357.84
2023-04-08T20:11:33.995Z,101364.06
2023-04-08T20:14:01.583Z,101363.22
2023-04-08T20:16:28.937Z,101364.16
2023-04-08T20:18:56.516Z,101371.25
2023-04-08T20:21:23.793Z,101370.38
2023-04-08T20:23:51.102Z,101372.19
2023-04-08T20:26:18.446Z,101372.19
2023-04-08T20:28:46.270Z,101379.41
2023-04-08T20:31:14.355Z,101379.41
2023-04-08T20:33:45.523Z,101377.69
2023-04-08T20:36:13.763Z,101382.94
2023-04-08T20:38:42.732Z,101382.06
2023-04-08T20:41:10.210Z,101390.13
2023-04-08T20:43:37.916Z,101383.91
2023-04-08T20:46:05.272Z,101398.16
2023-04-08T20:48:33.297Z,101392.81
2023-04-08T20:51:00.652Z,101396.47
2023-04-08T20:53:28.100Z,101391.94
2023-04-08T20:55:55.846Z,101391.94
2023-04-08T20:58:23.081Z,101392.81
2023-04-08T21:00:50.480Z,101397.31
2023-04-08T21:03:18.379Z,101390.97
2023-04-08T21:05:46.744Z,101387.44
2023-04-08T21:08:14.077Z,101390.13
2023-04-08T21:10:41.378Z,101390.03
2023-04-08T21:13:08.600Z,101389.16
2023-04-08T21:15:35.856Z,101390.88
2023-04-08T21:18:04.079Z,101388.19
2023-04-08T21:20:31.629Z,101392.59
2023-04-08T21:22:59.687Z,101387.22
2023-04-08T21:25:26.992Z,101390.75
2023-04-08T21:27:54.245Z,101388.91
2023-04-08T21:30:21.675Z,101395.13
2023-04-08T21:32:48.997Z,101396.00
2023-04-08T21:35:16.414Z,101396.00
2023-04-08T21:37:43.728Z,101400.50
2023-04-08T21:40:11.533Z,101402.25
2023-04-08T21:42:38.904Z,101401.34
2023-04-08T21:45:06.809Z,101412.09
2023-04-08T21:47:34.071Z,101413.81
2023-04-08T21:50:01.500Z,101408.47
2023-04-08T21:52:29.474Z,101413.81
2023-04-08T21:54:56.811Z,101410.16
2023-04-08T21:57:24.184Z,101414.69
2023-04-08T21:59:51.717Z,101413.81
2023-04-08T22:02:18.991Z,101420.03
2023-04-08T22:04:46.446Z,101413.81
2023-04-08T22:07:13.821Z,101425.41
2023-04-08T22:09:41.396Z,101421.88
2023-04-08T22:12:10.062Z,101423.69
2023-04-08T22:14:38.027Z,101425.41
2023-04-08T22:17:05.600Z,101428.09
2023-04-08T22:19:33.037Z,101422.72
2023-04-08T22:22:00.354Z,101425.41
2023-04-08T22:24:30.994Z,101424.56
2023-04-08T22:26:58.692Z,101427.22
2023-04-08T22:29:26.130Z,101426.25
2023-04-08T22:31:53.447Z,101430.78
2023-04-08T22:34:20.853Z,101427.22
2023-04-08T22:36:48.183Z,101423.69
2023-04-08T22:39:15.481Z,101421.88
2023-04-08T22:41:42.766Z,101421.88
2023-04-08T22:44:09.998Z,101416.50
2023-04-08T22:46:37.474Z,101420.88
2023-04-08T22:49:05.025Z,101418.34
2023-04-08T22:51:32.240Z,101420.88
2023-04-08T22:53:59.517Z,101416.50
2023-04-08T22:56:28.708Z,101420.03
2023-04-08T22:58:56.509Z,101415.66
2023-04-08T23:01:23.770Z,101417.44
2023-04-08T23:03:51.554Z,101415.75
2023-04-08T23:06:18.911Z,101413.91
2023-04-08T23:08:46.188Z,101415.75
2023-04-08T23:11:13.479Z,101406.84
2023-04-08T23:13:40.819Z,101412.34
2023-04-08T23:16:09.769Z,101414.03
2023-04-08T23:18:36.973Z,101407.81
2023-04-08T23:21:04.530Z,101412.34
2023-04-08T23:23:31.960Z,101405.25
2023-04-08T23:25:59.154Z,101402.56
2023-04-08T23:28:26.442Z,101407.91
2023-04-08T23:30:53.657Z,101412.44
2023-04-08T23:33:21.038Z,101415.97
2023-04-08T23:35:49.824Z,101412.44
2023-04-08T23:38:17.056Z,101412.44
2023-04-08T23:40:44.289Z,101418.66
2023-04-08T23:43:11.600Z,101421.47
2023-04-08T23:45:38.978Z,101426.69
2023-04-08T23:48:08.296Z,101425.00
2023-04-08T23:50:36.862Z,101419.63
2023-04-08T23:53:04.077Z,101421.47
2023-04-08T23:55:31.311Z,101423.28
2023-04-08T23:57:58.529Z,101417.91
